createdAt,value
2022-10-05T00:08:36.484Z,8.17
2022-10-05T00:18:59.523Z,9.63
2022-10-05T00:29:22.953Z,10.55
2022-10-05T00:39:45.062Z,10.50
2022-10-05T00:50:25.404Z,11.52
2022-10-05T01:01:05.126Z,8.33
2022-10-05T01:12:05.790Z,9.05
2022-10-05T01:22:48.575Z,10.60
2022-10-05T01:33:09.970Z,7.75
2022-10-05T01:43:44.694Z,8.90
2022-10-05T01:54:40.419Z,11.25
2022-10-05T02:05:11.139Z,10.27
2022-10-05T02:15:42.942Z,11.02
2022-10-05T02:26:05.854Z,13.70
2022-10-05T02:36:35.449Z,10.38
2022-10-05T02:47:10.548Z,7.80
2022-10-05T02:57:38.974Z,10.07
2022-10-05T03:08:28.879Z,13.63
2022-10-05T03:19:10.285Z,9.48
2022-10-05T03:29:40.267Z,8.48
2022-10-05T03:40:06.758Z,12.40
2022-10-05T03:50:46.866Z,10.65
2022-10-05T04:01:18.555Z,11.52
2022-10-05T04:11:46.236Z,12.13
2022-10-05T04:22:25.400Z,11.57
2022-10-05T04:32:55.725Z,12.60
2022-10-05T04:43:55.551Z,12.55
2022-10-05T04:54:27.820Z,12.73
2022-10-05T05:05:08.610Z,12.35
2022-10-05T05:15:46.572Z,14.43
2022-10-05T05:26:20.128Z,15.10
2022-10-05T05:37:25.227Z,12.13
2022-10-05T05:47:53.918Z,14.65
2022-10-05T05:58:25.203Z,16.77
2022-10-05T06:08:51.034Z,16.42
2022-10-05T06:19:16.578Z,14.20
2022-10-05T06:30:16.955Z,16.55
2022-10-05T06:41:02.528Z,12.90
2022-10-05T06:51:50.358Z,16.02
2022-10-05T07:02:23.924Z,15.18
2022-10-05T07:12:54.454Z,14.82
2022-10-05T07:23:52.843Z,13.65
2022-10-05T07:34:41.282Z,16.38
2022-10-05T07:45:25.965Z,20.60
2022-10-05T07:55:52.417Z,12.15
2022-10-05T08:06:30.405Z,13.38
2022-10-05T08:16:57.691Z,9.93
2022-10-05T08:27:28.119Z,9.38
2022-10-05T08:37:51.111Z,8.38
2022-10-05T08:48:42.297Z,8.50
2022-10-05T08:59:22.055Z,8.65
2022-10-05T09:10:21.430Z,8.68
2022-10-05T09:20:53.588Z,11.57
2022-10-05T09:31:44.896Z,10.75
2022-10-05T09:42:17.877Z,9.60
2022-10-05T09:52:39.341Z,6.78
2022-10-05T10:14:18.320Z,4.78
2022-10-05T10:25:04.546Z,3.88
2022-10-05T10:35:37.841Z,5.13
2022-10-05T10:45:59.300Z,3.38
2022-10-05T10:56:26.989Z,8.50
2022-10-05T11:07:09.830Z,4.25
2022-10-05T11:17:40.262Z,6.38
2022-10-05T11:28:35.761Z,4.20
2022-10-05T11:39:18.975Z,2.97
2022-10-05T11:49:47.485Z,3.22
2022-10-05T12:00:23.710Z,5.10
2022-10-05T12:11:25.643Z,3.05
2022-10-05T12:21:53.792Z,4.25
2022-10-05T12:32:33.638Z,6.22
2022-10-05T12:43:15.939Z,3.45
2022-10-05T12:53:40.401Z,8.68
2022-10-05T13:04:10.190Z,5.03
2022-10-05T13:14:40.800Z,4.20
2022-10-05T13:25:29.573Z,4.40
2022-10-05T13:36:18.687Z,3.92
2022-10-05T13:47:03.865Z,3.72
2022-10-05T13:57:46.719Z,4.07
2022-10-05T14:08:08.543Z,3.38
2022-10-05T14:18:32.844Z,4.82
2022-10-05T14:29:17.081Z,4.03
2022-10-05T14:39:42.453Z,3.78
2022-10-05T14:50:17.766Z,3.28
2022-10-05T15:01:17.709Z,4.10
2022-10-05T15:11:49.295Z,3.27
2022-10-05T15:22:14.136Z,4.65
2022-10-05T15:33:04.341Z,2.40
2022-10-05T15:43:35.142Z,2.97
2022-10-05T16:05:20.041Z,5.72
2022-10-05T16:15:50.559Z,3.08
2022-10-05T16:26:18.487Z,3.87
2022-10-05T16:36:53.375Z,2.50
2022-10-05T16:47:39.735Z,4.93
2022-10-05T16:58:11.586Z,2.65
2022-10-05T17:09:10.359Z,3.88
2022-10-05T17:19:47.742Z,4.97
2022-10-05T17:30:28.418Z,3.03
2022-10-05T17:51:48.863Z,3.03
2022-10-05T18:02:19.511Z,3.17
2022-10-05T18:12:59.454Z,2.28
2022-10-05T18:23:23.799Z,2.20
2022-10-05T18:33:53.415Z,2.35
2022-10-05T18:44:26.315Z,3.33
2022-10-05T18:55:13.340Z,3.55
2022-10-05T19:05:50.056Z,2.80
2022-10-05T19:16:20.228Z,8.00
2022-10-05T19:27:06.743Z,3.93
2022-10-05T19:37:46.241Z,3.83
2022-10-05T19:48:28.666Z,5.10
2022-10-05T19:58:55.918Z,4.20
2022-10-05T20:09:21.511Z,4.20
2022-10-05T20:20:01.534Z,5.82
2022-10-05T20:30:27.403Z,4.13
2022-10-05T20:40:48.886Z,2.95
2022-10-05T20:51:10.334Z,3.63
2022-10-05T21:01:32.035Z,4.95
2022-10-05T21:11:54.496Z,2.40
2022-10-05T21:22:15.984Z,5.32
2022-10-05T21:32:41.799Z,3.30
2022-10-05T21:43:05.588Z,3.40
2022-10-05T21:53:30.938Z,0.80
2022-10-05T22:03:52.463Z,1.60
2022-10-05T22:24:38.625Z,1.45
2022-10-05T22:45:21.524Z,1.00
2022-10-05T23:06:10.104Z,0.23
2022-10-05T23:16:31.723Z,0.13
2022-10-05T23:26:53.204Z,0.82
2022-10-05T23:37:14.719Z,2.22
2022-10-05T23:57:57.615Z,2.93
